createdAt,value
2023-01-04T00:00:39.596Z,94987.53
2023-01-04T00:05:42.599Z,94993.78
2023-01-04T00:10:44.246Z,94988.53
2023-01-04T00:15:45.815Z,94989.03
2023-01-04T00:20:50.758Z,94981.00
2023-01-04T00:25:52.363Z,94984.59
2023-01-04T00:30:54.109Z,94978.19
2023-01-04T00:36:02.481Z,94978.66
2023-01-04T00:41:05.533Z,94970.56
2023-01-04T00:46:07.210Z,94968.94
2023-01-04T00:51:16.187Z,94953.28
2023-01-04T00:56:17.738Z,94944.63
2023-01-04T01:01:19.356Z,94930.75
2023-01-04T01:06:22.748Z,94930.16
2023-01-04T01:11:24.951Z,94947.91
2023-01-04T01:16:53.103Z,94933.53
2023-01-04T01:21:49.559Z,94924.41
2023-01-04T01:26:51.228Z,94929.19
2023-01-04T01:31:53.344Z,94948.78
2023-01-04T01:36:56.421Z,94947.09
2023-01-04T01:41:58.995Z,94947.16
2023-01-04T01:47:01.353Z,94948.97
2023-01-04T01:52:08.965Z,94949.88
2023-01-04T01:57:16.822Z,94940.00
2023-01-04T02:02:18.613Z,94946.66
2023-01-04T02:07:26.487Z,94942.44
2023-01-04T02:12:27.967Z,94941.09
2023-01-04T02:17:39.141Z,94933.94
2023-01-04T02:23:14.304Z,94937.59
2023-01-04T02:28:29.447Z,94932.13
2023-01-04T02:33:44.372Z,94929.03
2023-01-04T02:38:58.162Z,94919.03
2023-01-04T02:44:11.554Z,94916.91
2023-01-04T02:49:14.954Z,94913.56
2023-01-04T02:54:21.796Z,94906.03
2023-01-04T02:59:50.872Z,94910.88
2023-01-04T03:05:04.859Z,94902.03
2023-01-04T03:10:12.664Z,94909.47
2023-01-04T03:15:18.980Z,94901.25
2023-01-04T03:20:24.315Z,94911.50
2023-01-04T03:25:31.301Z,94903.53
2023-01-04T03:30:39.046Z,94901.25
2023-01-04T03:35:43.297Z,94889.03
2023-01-04T03:40:50.233Z,94883.19
2023-01-04T03:45:56.283Z,94882.41
2023-01-04T03:51:05.773Z,94878.84
2023-01-04T03:56:09.177Z,94878.44
2023-01-04T04:01:12.476Z,94873.72
2023-01-04T04:06:15.654Z,94857.28
2023-01-04T04:11:17.315Z,94851.63
2023-01-04T04:16:18.996Z,94851.47
2023-01-04T04:21:22.055Z,94857.25
2023-01-04T04:26:24.140Z,94872.16
2023-01-04T04:31:37.860Z,94861.66
2023-01-04T04:36:40.801Z,94857.31
2023-01-04T04:41:42.433Z,94854.34
2023-01-04T04:46:45.047Z,94848.84
2023-01-04T04:51:49.045Z,94856.00
2023-01-04T04:56:50.655Z,94855.25
2023-01-04T05:01:52.365Z,94835.19
2023-01-04T05:06:55.293Z,94841.38
2023-01-04T05:11:56.924Z,94822.66
2023-01-04T05:16:58.627Z,94832.09
2023-01-04T05:22:01.714Z,94831.16
2023-01-04T05:27:03.397Z,94834.47
2023-01-04T05:32:05.721Z,94824.53
2023-01-04T05:37:09.789Z,94833.69
2023-01-04T05:42:11.380Z,94821.88
2023-01-04T05:47:15.033Z,94823.25
2023-01-04T05:52:18.969Z,94816.50
2023-01-04T05:57:20.578Z,94825.59
2023-01-04T06:02:29.283Z,94812.84
2023-01-04T06:07:32.761Z,94818.44
2023-01-04T06:12:34.555Z,94815.16
2023-01-04T06:17:38.478Z,94813.13
2023-01-04T06:22:41.596Z,94832.94
2023-01-04T06:27:43.210Z,94819.25
2023-01-04T06:32:45.980Z,94817.22
2023-01-04T06:37:52.062Z,94815.72
2023-01-04T06:42:53.660Z,94819.47
2023-01-04T06:47:56.242Z,94817.41
2023-01-04T06:52:59.180Z,94814.13
2023-01-04T06:58:01.053Z,94812.19
2023-01-04T07:03:14.526Z,94796.06
2023-01-04T07:08:19.011Z,94790.72
2023-01-04T07:13:20.624Z,94786.72
2023-01-04T07:18:22.430Z,94793.19
2023-01-04T07:23:25.337Z,94794.00
2023-01-04T07:28:26.964Z,94777.63
2023-01-04T07:33:28.550Z,94779.72
2023-01-04T07:38:31.608Z,94778.53
2023-01-04T07:43:33.195Z,94781.66
2023-01-04T07:48:34.783Z,94783.91
2023-01-04T07:53:37.772Z,94786.38
2023-01-04T07:58:39.502Z,94782.63
2023-01-04T08:03:41.400Z,94784.00
2023-01-04T08:08:44.442Z,94775.66
2023-01-04T08:13:46.107Z,94789.97
2023-01-04T08:18:48.273Z,94788.66
2023-01-04T08:23:52.107Z,94794.19
2023-01-04T08:28:54.276Z,94787.75
2023-01-04T08:33:56.529Z,94793.91
2023-01-04T08:39:01.999Z,94789.47
2023-01-04T08:44:06.015Z,94777.63
2023-01-04T08:49:08.931Z,94781.28
2023-01-04T08:54:12.973Z,94775.69
2023-01-04T08:59:15.595Z,94763.84
2023-01-04T09:04:17.272Z,94766.47
2023-01-04T09:09:20.298Z,94764.25
2023-01-04T09:14:21.891Z,94759.69
2023-01-04T09:19:23.503Z,94767.97
2023-01-04T09:24:26.464Z,94774.75
2023-01-04T09:29:28.047Z,94771.78
2023-01-04T09:34:29.643Z,94766.00
2023-01-04T09:39:32.553Z,94773.59
2023-01-04T09:50:05.674Z,94743.31
2023-01-04T09:55:37.295Z,94724.44
2023-01-04T10:00:43.395Z,94755.28
2023-01-04T10:05:45.438Z,94735.38
2023-01-04T10:10:57.247Z,94742.97
2023-01-04T10:16:10.919Z,94732.75
2023-01-04T10:21:33.445Z,94736.09
2023-01-04T10:26:42.038Z,94723.41
2023-01-04T10:31:46.059Z,94719.00
2023-01-04T10:36:48.677Z,94716.09
2023-01-04T10:41:55.659Z,94707.72
2023-01-04T10:47:05.611Z,94703.59
2023-01-04T10:52:12.009Z,94702.91
2023-01-04T10:57:23.344Z,94712.69
2023-01-04T11:02:35.348Z,94701.94
2023-01-04T11:07:46.120Z,94697.84
2023-01-04T11:12:49.332Z,94683.78
2023-01-04T11:17:54.634Z,94670.53
2023-01-04T11:23:05.117Z,94647.69
2023-01-04T11:28:15.987Z,94642.28
2023-01-04T11:33:19.575Z,94643.97
2023-01-04T11:38:23.162Z,94651.78
2023-01-04T11:43:27.572Z,94640.00
2023-01-04T11:48:38.505Z,94644.31
2023-01-04T11:53:40.124Z,94637.09
2023-01-04T11:58:45.093Z,94618.31
2023-01-04T12:03:46.867Z,94606.34
2023-01-04T12:08:48.794Z,94610.44
2023-01-04T12:13:51.923Z,94603.97
2023-01-04T12:18:53.992Z,94614.41
2023-01-04T12:23:56.103Z,94612.88
2023-01-04T12:29:31.363Z,94626.72
2023-01-04T12:34:42.178Z,94605.19
2023-01-04T12:39:45.380Z,94593.97
2023-01-04T12:45:21.451Z,94595.59
2023-01-04T12:50:24.694Z,94587.31
2023-01-04T12:55:51.236Z,94588.09
2023-01-04T13:01:25.288Z,94591.97
2023-01-04T13:06:31.119Z,94586.38
2023-01-04T13:12:04.681Z,94579.78
2023-01-04T13:17:17.221Z,94569.13
2023-01-04T13:22:29.521Z,94575.56
2023-01-04T13:27:31.458Z,94576.25
2023-01-04T13:32:35.579Z,94569.91
2023-01-04T13:37:46.927Z,94568.41
2023-01-04T13:42:50.604Z,94563.03
2023-01-04T13:47:56.967Z,94562.47
2023-01-04T13:53:06.991Z,94544.66
2023-01-04T13:58:17.421Z,94538.97
2023-01-04T14:03:37.567Z,94533.84
2023-01-04T14:08:44.926Z,94551.84
2023-01-04T14:13:47.992Z,94548.78
2023-01-04T14:18:49.546Z,94542.91
2023-01-04T14:23:52.499Z,94543.19
2023-01-04T14:28:54.017Z,94532.44
2023-01-04T14:33:56.054Z,94524.34
2023-01-04T14:39:09.037Z,94507.41
2023-01-04T14:44:13.373Z,94512.81
2023-01-04T14:49:15.546Z,94506.03
2023-01-04T14:54:25.342Z,94519.91
2023-01-04T14:59:27.290Z,94508.78
2023-01-04T15:04:29.216Z,94511.28
2023-01-04T15:09:32.103Z,94500.28
2023-01-04T15:14:33.709Z,94501.63
2023-01-04T15:19:37.936Z,94509.25
2023-01-04T15:24:41.352Z,94516.53
2023-01-04T15:29:42.980Z,94510.41
2023-01-04T15:34:47.012Z,94514.69
2023-01-04T15:39:50.102Z,94499.56
2023-01-04T15:44:51.869Z,94503.00
2023-01-04T15:49:53.500Z,94503.22
2023-01-04T15:54:56.398Z,94484.00
2023-01-04T15:59:58.210Z,94478.41
2023-01-04T16:04:59.819Z,94496.84
2023-01-04T16:10:03.102Z,94505.78
2023-01-04T16:15:05.759Z,94501.50
2023-01-04T16:20:08.558Z,94503.38
2023-01-04T16:25:12.528Z,94506.34
2023-01-04T16:30:14.759Z,94497.03
2023-01-04T16:35:16.759Z,94513.03
2023-01-04T16:40:19.872Z,94504.19
2023-01-04T16:45:21.441Z,94510.69
2023-01-04T16:50:23.097Z,94517.47
2023-01-04T16:55:26.051Z,94517.69
2023-01-04T17:00:27.700Z,94497.84
2023-01-04T17:05:29.283Z,94492.69
2023-01-04T17:10:33.548Z,94494.16
2023-01-04T17:15:43.787Z,94493.28
2023-01-04T17:20:52.973Z,94492.00
2023-01-04T17:26:00.569Z,94479.88
2023-01-04T17:31:04.777Z,94483.44
2023-01-04T17:36:08.772Z,94471.84
2023-01-04T17:41:13.419Z,94441.50
2023-01-04T17:46:22.529Z,94431.41
2023-01-04T17:51:25.430Z,94430.28
2023-01-04T17:56:29.950Z,94425.25
2023-01-04T18:01:31.617Z,94422.72
2023-01-04T18:06:35.865Z,94406.09
2023-01-04T18:11:38.854Z,94411.31
2023-01-04T18:16:40.479Z,94393.63
2023-01-04T18:21:42.198Z,94402.22
2023-01-04T18:32:06.902Z,94377.56
2023-01-04T18:37:09.994Z,94389.41
2023-01-04T18:42:12.971Z,94393.38
2023-01-04T18:47:14.769Z,94387.97
2023-01-04T18:52:16.870Z,94387.09
2023-01-04T18:57:19.877Z,94377.28
2023-01-04T19:02:22.671Z,94365.50
2023-01-04T19:07:25.001Z,94378.19
2023-01-04T19:12:27.947Z,94370.50
2023-01-04T19:17:29.512Z,94374.44
2023-01-04T19:22:32.070Z,94378.50
2023-01-04T19:27:35.238Z,94379.50
2023-01-04T19:32:36.887Z,94373.25
2023-01-04T19:37:38.439Z,94383.91
2023-01-04T19:42:41.564Z,94388.84
2023-01-04T19:47:43.778Z,94391.69
2023-01-04T19:52:45.861Z,94379.03
2023-01-04T19:57:48.852Z,94384.72
2023-01-04T20:02:50.759Z,94393.94
2023-01-04T20:07:52.401Z,94400.56
2023-01-04T20:12:55.587Z,94395.44
2023-01-04T20:17:57.228Z,94396.09
2023-01-04T20:22:58.909Z,94398.75
2023-01-04T20:28:01.984Z,94403.69
2023-01-04T20:33:03.839Z,94400.94
2023-01-04T20:38:05.865Z,94412.56
2023-01-04T20:43:09.211Z,94413.88
2023-01-04T20:48:11.289Z,94412.84
2023-01-04T20:53:12.966Z,94413.06
2023-01-04T20:58:16.684Z,94413.75
2023-01-04T21:03:18.384Z,94417.94
2023-01-04T21:08:20.214Z,94418.06
2023-01-04T21:13:23.281Z,94400.84
2023-01-04T21:18:25.994Z,94409.25
2023-01-04T21:23:27.579Z,94416.53
2023-01-04T21:28:30.555Z,94409.47
2023-01-04T21:33:32.224Z,94396.81
2023-01-04T21:38:33.854Z,94400.44
2023-01-04T21:43:37.118Z,94396.34
2023-01-04T21:48:38.929Z,94387.88
2023-01-04T21:53:41.509Z,94385.00
2023-01-04T21:58:45.254Z,94388.00
2023-01-04T22:03:47.125Z,94399.00
2023-01-04T22:08:48.906Z,94401.00
2023-01-04T22:13:51.965Z,94407.22
2023-01-04T22:18:53.551Z,94407.94
2023-01-04T22:23:55.164Z,94408.06
2023-01-04T22:28:58.162Z,94403.50
2023-01-04T22:34:00.004Z,94390.50
2023-01-04T22:39:01.568Z,94406.72
2023-01-04T22:44:05.839Z,94396.06
2023-01-04T22:49:07.389Z,94390.13
2023-01-04T22:54:10.016Z,94379.81
2023-01-04T22:59:13.016Z,94379.84
2023-01-04T23:04:16.697Z,94369.31
2023-01-04T23:09:19.071Z,94355.69
2023-01-04T23:14:22.086Z,94344.81
2023-01-04T23:19:23.843Z,94348.75
2023-01-04T23:24:25.694Z,94344.34
2023-01-04T23:29:29.557Z,94339.06
2023-01-04T23:34:31.252Z,94343.84
2023-01-04T23:39:32.826Z,94333.16
2023-01-04T23:44:38.733Z,94327.41
2023-01-04T23:49:41.632Z,94321.53
2023-01-04T23:54:43.253Z,94313.31
2023-01-04T23:59:46.148Z,94305.81
